Time;durP1;ratioP1;P1;durP2;ratioP2;P2;SDS_P1;SDS_P2;PMS_P1;PMS_P2;Temp;Humidity;BMP_temperature;BMP_pressure;BME280_temperature;BME280_humidity;BME280_pressure;Samples;Min_cycle;Max_cycle;Signal;HPM_P1;HPM_P2
2022/02/16 00:01:51;;;;;;;3.43;2.23;;;;;;;;;;6187316;23;20871;-86
2022/02/16 00:04:55;;;;;;;4.10;2.70;;;;;;;;;;6187722;23;20552;-86
2022/02/16 00:07:59;;;;;;;3.97;2.93;;;;;;;;;;6196970;23;20512;-86
2022/02/16 00:11:03;;;;;;;3.50;2.50;;;;;;;;;;6179812;23;20516;-87
2022/02/16 00:14:07;;;;;;;4.80;3.30;;;;;;;;;;6171808;23;20568;-86
2022/02/16 00:17:12;;;;;;;4.80;3.63;;;;;;;;;;6169868;23;20548;-87
2022/02/16 00:20:15;;;;;;;4.87;2.97;;;;;;;;;;6187196;23;20898;-87
2022/02/16 00:23:21;;;;;;;3.67;2.93;;;;;;;;;;6169780;23;20584;-86
2022/02/16 00:26:25;;;;;;;4.67;3.20;;;;;;;;;;6180253;23;20516;-86
2022/02/16 00:29:30;;;;;;;3.17;2.77;;;;;;;;;;6196736;23;21052;-86
2022/02/16 00:32:35;;;;;;;4.13;3.13;;;;;;;;;;6177977;23;20572;-86
2022/02/16 00:35:39;;;;;;;3.13;2.83;;;;;;;;;;6180103;23;21021;-87
2022/02/16 00:38:45;;;;;;;4.50;3.10;;;;;;;;;;6186927;23;20600;-86
2022/02/16 00:41:49;;;;;;;7.53;3.00;;;;;;;;;;6162511;23;20517;-86
2022/02/16 00:44:53;;;;;;;6.57;3.17;;;;;;;;;;6179663;23;20500;-86
2022/02/16 00:47:57;;;;;;;4.13;2.40;;;;;;;;;;6197142;23;20520;-86
2022/02/16 00:51:03;;;;;;;4.77;2.20;;;;;;;;;;6179528;23;20516;-86
2022/02/16 00:54:07;;;;;;;2.93;2.40;;;;;;;;;;6171275;23;20571;-86
2022/02/16 00:57:11;;;;;;;3.67;2.33;;;;;;;;;;6179293;23;20517;-86
2022/02/16 01:00:16;;;;;;;2.80;2.27;;;;;;;;;;6196155;23;20560;-86
2022/02/16 01:03:25;;;;;;;3.97;2.40;;;;;;;;;;6174044;23;20579;-87
2022/02/16 01:06:30;;;;;;;3.00;2.33;;;;;;;;;;6179250;23;21056;-86
2022/02/16 01:09:34;;;;;;;3.77;2.47;;;;;;;;;;6195996;23;20508;-86
2022/02/16 01:12:38;;;;;;;3.57;2.27;;;;;;;;;;6176824;23;20571;-86
2022/02/16 01:15:42;;;;;;;4.80;2.23;;;;;;;;;;6196154;23;20517;-86
2022/02/16 01:18:49;;;;;;;2.73;2.33;;;;;;;;;;6179116;23;20564;-86
2022/02/16 01:21:54;;;;;;;2.17;1.90;;;;;;;;;;6179138;23;20521;-86
2022/02/16 01:24:59;;;;;;;3.80;2.00;;;;;;;;;;6179204;23;20560;-86
2022/02/16 01:28:04;;;;;;;4.13;2.20;;;;;;;;;;6179391;23;20517;-86
2022/02/16 01:31:12;;;;;;;3.67;2.07;;;;;;;;;;6179736;23;20512;-86
2022/02/16 01:34:20;;;;;;;5.03;2.03;;;;;;;;;;6169750;23;20572;-86
2022/02/16 01:37:24;;;;;;;4.03;1.90;;;;;;;;;;6152063;23;21085;-86
2022/02/16 01:40:28;;;;;;;2.00;1.80;;;;;;;;;;6168607;23;20915;-86
2022/02/16 01:43:35;;;;;;;2.37;1.93;;;;;;;;;;6173214;23;20579;-87
2022/02/16 01:47:00;;;;;;;2.80;1.80;;;;;;;;;;6178820;23;21037;-86
2022/02/16 01:50:08;;;;;;;2.07;1.80;;;;;;;;;;6196372;23;20509;-86
2022/02/16 01:53:12;;;;;;;6.53;1.80;;;;;;;;;;6191744;23;20572;-86
2022/02/16 01:56:20;;;;;;;2.60;1.80;;;;;;;;;;6180013;23;20516;-86
2022/02/16 01:59:25;;;;;;;2.53;1.60;;;;;;;;;;6196185;23;20563;-87
2022/02/16 02:03:01;;;;;;;1.90;1.57;;;;;;;;;;6144384;23;20603;-87
2022/02/16 02:06:14;;;;;;;1.60;1.50;;;;;;;;;;6181093;23;20516;-87
2022/02/16 02:09:18;;;;;;;2.40;1.63;;;;;;;;;;6168834;23;20544;-87
2022/02/16 02:12:22;;;;;;;1.50;1.40;;;;;;;;;;6178010;23;21041;-87
2022/02/16 02:15:27;;;;;;;4.07;1.57;;;;;;;;;;6179448;23;20517;-87
2022/02/16 02:18:45;;;;;;;1.77;1.53;;;;;;;;;;6182110;23;20509;-87
2022/02/16 02:21:54;;;;;;;2.17;1.80;;;;;;;;;;6180046;23;20520;-87
2022/02/16 02:24:57;;;;;;;1.83;1.60;;;;;;;;;;6178889;23;20509;-87
2022/02/16 02:28:03;;;;;;;2.30;1.40;;;;;;;;;;6179297;23;20520;-87
2022/02/16 02:31:07;;;;;;;2.40;1.37;;;;;;;;;;6179103;23;20509;-87
2022/02/16 02:34:12;;;;;;;3.43;1.57;;;;;;;;;;6170696;23;20584;-86
2022/02/16 02:37:16;;;;;;;2.03;1.50;;;;;;;;;;6190303;23;20563;-86
2022/02/16 02:40:21;;;;;;;3.00;1.60;;;;;;;;;;6174123;23;20608;-86
2022/02/16 02:43:26;;;;;;;4.60;1.53;;;;;;;;;;6174179;23;20576;-87
2022/02/16 02:46:31;;;;;;;3.60;1.40;;;;;;;;;;6178774;23;20513;-87
2022/02/16 02:49:36;;;;;;;1.60;1.27;;;;;;;;;;6186628;23;20552;-86
2022/02/16 02:52:41;;;;;;;1.80;1.40;;;;;;;;;;6169142;23;20583;-87
2022/02/16 02:55:46;;;;;;;1.93;1.40;;;;;;;;;;6169326;23;20555;-86
2022/02/16 02:58:51;;;;;;;3.03;1.27;;;;;;;;;;6169251;23;20548;-86
2022/02/16 03:01:55;;;;;;;1.40;1.00;;;;;;;;;;6169578;23;20544;-86
2022/02/16 03:05:01;;;;;;;1.47;1.23;;;;;;;;;;6196040;23;20520;-87
2022/02/16 03:08:05;;;;;;;1.97;0.87;;;;;;;;;;6178733;23;20508;-87
2022/02/16 03:11:10;;;;;;;1.80;1.00;;;;;;;;;;6178760;23;20512;-87
2022/02/16 03:14:14;;;;;;;1.47;1.00;;;;;;;;;;6170629;23;20572;-86
2022/02/16 03:17:18;;;;;;;1.93;1.00;;;;;;;;;;6162333;23;20517;-87
2022/02/16 03:20:23;;;;;;;2.40;1.10;;;;;;;;;;6178713;23;20564;-87
2022/02/16 03:23:27;;;;;;;1.47;0.90;;;;;;;;;;6173703;23;20580;-87
2022/02/16 03:26:31;;;;;;;2.60;0.73;;;;;;;;;;6179306;23;20808;-86
2022/02/16 03:29:36;;;;;;;0.67;0.67;;;;;;;;;;6179148;23;20512;-87
2022/02/16 03:32:40;;;;;;;2.50;0.93;;;;;;;;;;6178307;23;20571;-87
2022/02/16 03:35:44;;;;;;;2.90;1.20;;;;;;;;;;6182564;23;21061;-86
2022/02/16 03:38:49;;;;;;;2.30;0.83;;;;;;;;;;6200122;23;20520;-86
2022/02/16 03:42:00;;;;;;;1.77;1.00;;;;;;;;;;6200529;23;20504;-87
2022/02/16 03:45:05;;;;;;;1.10;0.70;;;;;;;;;;6182056;23;20824;-86
2022/02/16 03:48:23;;;;;;;2.47;0.93;;;;;;;;;;6172103;23;20552;-87
2022/02/16 03:51:27;;;;;;;1.27;0.90;;;;;;;;;;6198019;23;20512;-88
2022/02/16 03:54:32;;;;;;;1.70;0.90;;;;;;;;;;6171588;23;20575;-87
2022/02/16 03:57:38;;;;;;;1.00;0.70;;;;;;;;;;6171211;23;21092;-87
2022/02/16 04:00:42;;;;;;;1.83;0.80;;;;;;;;;;6170876;23;20599;-88
2022/02/16 04:03:47;;;;;;;1.53;1.00;;;;;;;;;;6174004;23;20575;-88
2022/02/16 04:06:51;;;;;;;1.70;0.87;;;;;;;;;;6180920;23;20508;-88
2022/02/16 04:09:56;;;;;;;0.83;0.80;;;;;;;;;;6180934;23;20513;-87
2022/02/16 04:13:00;;;;;;;2.07;0.80;;;;;;;;;;6177252;23;20579;-88
2022/02/16 04:16:05;;;;;;;0.83;0.70;;;;;;;;;;6197921;23;20508;-87
2022/02/16 04:19:09;;;;;;;1.17;0.63;;;;;;;;;;6170808;23;20548;-87
2022/02/16 04:22:16;;;;;;;0.87;0.80;;;;;;;;;;6180847;23;20504;-87
2022/02/16 04:25:21;;;;;;;1.37;0.73;;;;;;;;;;6180840;23;20827;-87
2022/02/16 04:28:26;;;;;;;3.07;1.00;;;;;;;;;;6181540;23;20500;-87
2022/02/16 04:31:30;;;;;;;0.63;0.60;;;;;;;;;;6198021;23;20512;-87
2022/02/16 04:34:35;;;;;;;1.30;0.83;;;;;;;;;;6171088;23;20579;-87
2022/02/16 04:37:39;;;;;;;1.20;0.80;;;;;;;;;;6180553;23;20509;-87
2022/02/16 04:40:44;;;;;;;0.90;0.70;;;;;;;;;;6173661;23;20607;-87
2022/02/16 04:43:49;;;;;;;1.00;0.63;;;;;;;;;;6173228;23;20580;-87
2022/02/16 04:46:53;;;;;;;1.37;0.70;;;;;;;;;;6196588;23;20504;-87
2022/02/16 04:49:58;;;;;;;0.97;0.70;;;;;;;;;;6170001;23;20548;-87
2022/02/16 04:53:04;;;;;;;0.60;0.57;;;;;;;;;;6175237;23;20580;-87
2022/02/16 04:56:13;;;;;;;1.77;0.73;;;;;;;;;;6180053;23;20512;-87
2022/02/16 04:59:18;;;;;;;0.87;0.70;;;;;;;;;;6179341;23;20513;-88
2022/02/16 05:02:22;;;;;;;1.07;0.60;;;;;;;;;;6178082;23;20504;-87
2022/02/16 05:05:26;;;;;;;0.60;0.50;;;;;;;;;;6196352;23;20516;-87
2022/02/16 05:08:32;;;;;;;2.00;0.60;;;;;;;;;;6179337;23;20832;-87
2022/02/16 05:11:36;;;;;;;1.23;0.73;;;;;;;;;;6162303;23;20509;-88
2022/02/16 05:14:44;;;;;;;0.70;0.60;;;;;;;;;;6170053;23;20552;-87
2022/02/16 05:17:48;;;;;;;0.60;0.50;;;;;;;;;;6179360;23;20505;-87
2022/02/16 05:21:13;;;;;;;0.83;0.40;;;;;;;;;;6178626;23;20560;-87
2022/02/16 05:24:18;;;;;;;0.90;0.60;;;;;;;;;;6169938;23;20576;-88
2022/02/16 05:27:25;;;;;;;0.80;0.50;;;;;;;;;;6178855;23;20500;-88
2022/02/16 05:30:30;;;;;;;0.60;0.60;;;;;;;;;;6178838;23;20509;-88
2022/02/16 05:33:36;;;;;;;0.57;0.50;;;;;;;;;;6172829;23;20579;-88
2022/02/16 05:36:41;;;;;;;0.70;0.60;;;;;;;;;;6175433;23;20855;-88
2022/02/16 05:39:45;;;;;;;1.33;0.70;;;;;;;;;;6185303;23;20879;-88
2022/02/16 05:42:50;;;;;;;0.60;0.60;;;;;;;;;;6158819;23;20576;-88
2022/02/16 05:45:54;;;;;;;0.60;0.60;;;;;;;;;;6162092;23;20509;-88
2022/02/16 05:48:59;;;;;;;1.43;0.53;;;;;;;;;;6161921;23;20521;-87
2022/02/16 05:52:04;;;;;;;0.93;0.70;;;;;;;;;;6161894;23;20513;-88
2022/02/16 05:55:08;;;;;;;0.70;0.60;;;;;;;;;;6162115;23;20820;-88
2022/02/16 05:58:13;;;;;;;0.70;0.67;;;;;;;;;;6161700;23;20505;-88
2022/02/16 06:01:17;;;;;;;0.50;0.50;;;;;;;;;;6161466;23;20564;-88
2022/02/16 06:04:34;;;;;;;1.30;0.70;;;;;;;;;;6154231;23;20588;-88
2022/02/16 06:07:38;;;;;;;0.60;0.60;;;;;;;;;;6161775;23;20501;-87
2022/02/16 06:10:42;;;;;;;0.63;0.53;;;;;;;;;;6178260;23;20513;-88
2022/02/16 06:13:46;;;;;;;0.70;0.60;;;;;;;;;;6154516;23;21120;-88
2022/02/16 06:16:53;;;;;;;0.93;0.60;;;;;;;;;;6161067;23;20512;-88
2022/02/16 06:19:57;;;;;;;0.80;0.70;;;;;;;;;;6161524;23;21053;-88
2022/02/16 06:23:02;;;;;;;1.13;0.70;;;;;;;;;;6168296;23;20898;-88
2022/02/16 06:26:07;;;;;;;2.60;0.80;;;;;;;;;;6151907;23;20548;-87
2022/02/16 06:29:12;;;;;;;0.80;0.63;;;;;;;;;;6151681;23;20552;-88
2022/02/16 06:32:31;;;;;;;1.27;0.70;;;;;;;;;;6179883;23;20572;-88
2022/02/16 06:35:38;;;;;;;0.77;0.77;;;;;;;;;;6161379;23;20517;-88
2022/02/16 06:38:43;;;;;;;0.80;0.57;;;;;;;;;;6161190;23;20517;-88
2022/02/16 06:41:49;;;;;;;0.83;0.63;;;;;;;;;;6161019;23;20553;-89
2022/02/16 06:44:53;;;;;;;0.90;0.80;;;;;;;;;;6160827;23;20517;-87
2022/02/16 06:48:03;;;;;;;1.50;0.90;;;;;;;;;;6152809;23;20547;-88
2022/02/16 06:51:08;;;;;;;1.00;0.90;;;;;;;;;;6168504;23;20548;-88
2022/02/16 06:54:12;;;;;;;2.60;1.17;;;;;;;;;;6153369;23;20588;-88
2022/02/16 06:57:24;;;;;;;1.80;0.70;;;;;;;;;;6160943;23;20517;-89
2022/02/16 07:00:53;;;;;;;0.60;0.50;;;;;;;;;;6162444;23;20568;-88
2022/02/16 07:03:57;;;;;;;1.10;1.00;;;;;;;;;;6137279;23;20588;-88
2022/02/16 07:07:05;;;;;;;2.43;1.90;;;;;;;;;;6134524;23;21081;-88
2022/02/16 07:10:09;;;;;;;0.77;0.60;;;;;;;;;;6160670;23;20513;-88
2022/02/16 07:13:14;;;;;;;0.70;0.63;;;;;;;;;;6151044;23;20580;-88
2022/02/16 07:16:18;;;;;;;0.93;0.50;;;;;;;;;;6160436;23;20513;-87
2022/02/16 07:19:26;;;;;;;0.50;0.50;;;;;;;;;;6161067;23;20505;-88
2022/02/16 07:23:03;;;;;;;0.67;0.50;;;;;;;;;;6191156;23;20192;-88
2022/02/16 07:26:09;;;;;;;1.47;0.60;;;;;;;;;;6160739;23;20513;-88
2022/02/16 07:29:14;;;;;;;0.60;0.50;;;;;;;;;;6160841;23;20156;-89
2022/02/16 07:32:18;;;;;;;0.50;0.50;;;;;;;;;;6160316;23;20591;-89
2022/02/16 07:35:23;;;;;;;0.73;0.53;;;;;;;;;;6160675;23;20157;-88
2022/02/16 07:38:28;;;;;;;5.67;3.63;;;;;;;;;;6177730;23;20157;-88
2022/02/16 07:41:32;;;;;;;3.57;2.13;;;;;;;;;;6177354;23;20172;-89
2022/02/16 07:44:43;;;;;;;2.37;2.17;;;;;;;;;;6160749;23;20156;-88
2022/02/16 07:48:00;;;;;;;1.60;1.50;;;;;;;;;;6162966;23;20157;-88
2022/02/16 07:51:04;;;;;;;1.07;0.70;;;;;;;;;;6150489;23;20169;-88
2022/02/16 07:54:26;;;;;;;0.63;0.53;;;;;;;;;;6171866;23;20189;-89
2022/02/16 07:57:48;;;;;;;0.80;0.73;;;;;;;;;;6164492;23;20153;-88
2022/02/16 08:00:52;;;;;;;2.50;1.50;;;;;;;;;;6160202;23;20172;-89
2022/02/16 08:04:15;;;;;;;0.73;0.73;;;;;;;;;;6153536;23;20654;-88
2022/02/16 08:07:21;;;;;;;2.47;0.70;;;;;;;;;;6160938;23;20157;-88
2022/02/16 08:10:27;;;;;;;0.67;0.63;;;;;;;;;;6133844;23;20173;-88
2022/02/16 08:13:31;;;;;;;1.73;1.33;;;;;;;;;;6154617;23;20193;-88
2022/02/16 08:16:48;;;;;;;1.77;0.90;;;;;;;;;;6163455;23;20606;-88
2022/02/16 08:19:52;;;;;;;1.20;0.80;;;;;;;;;;6162429;23;20157;-88
2022/02/16 08:22:56;;;;;;;1.20;1.07;;;;;;;;;;6158995;23;20189;-89
2022/02/16 08:26:00;;;;;;;1.50;1.00;;;;;;;;;;6162139;23;20160;-89
2022/02/16 08:29:05;;;;;;;2.10;1.37;;;;;;;;;;6162973;23;20157;-88
2022/02/16 08:32:10;;;;;;;3.50;2.20;;;;;;;;;;6161905;23;20157;-88
2022/02/16 08:35:14;;;;;;;3.40;2.47;;;;;;;;;;6178689;23;20467;-88
2022/02/16 08:38:18;;;;;;;15.57;9.43;;;;;;;;;;6179153;23;20157;-88
2022/02/16 08:41:22;;;;;;;10.10;6.60;;;;;;;;;;6168046;23;20196;-88
2022/02/16 08:44:26;;;;;;;5.40;4.67;;;;;;;;;;6169171;23;20197;-88
2022/02/16 08:47:30;;;;;;;6.37;5.77;;;;;;;;;;6178793;23;20161;-88
2022/02/16 08:50:34;;;;;;;1.47;1.37;;;;;;;;;;6179065;23;20157;-88
2022/02/16 08:53:38;;;;;;;1.90;1.40;;;;;;;;;;6173183;23;20189;-88
2022/02/16 08:56:45;;;;;;;1.57;1.47;;;;;;;;;;6195904;23;20157;-88
2022/02/16 08:59:50;;;;;;;8.77;6.53;;;;;;;;;;6179038;23;20157;-88
2022/02/16 09:02:54;;;;;;;4.73;3.50;;;;;;;;;;6175607;23;20196;-88
2022/02/16 09:05:59;;;;;;;2.53;2.20;;;;;;;;;;6196564;23;20157;-88
2022/02/16 09:09:04;;;;;;;1.40;1.30;;;;;;;;;;6179373;23;20161;-88
2022/02/16 09:12:08;;;;;;;1.93;1.70;;;;;;;;;;6179095;23;20149;-88
2022/02/16 09:15:13;;;;;;;1.13;0.90;;;;;;;;;;6178683;23;20157;-88
2022/02/16 09:18:17;;;;;;;1.80;1.40;;;;;;;;;;6178988;23;20157;-88
2022/02/16 09:21:21;;;;;;;1.00;0.90;;;;;;;;;;6195852;23;20176;-88
2022/02/16 09:24:26;;;;;;;2.13;1.47;;;;;;;;;;6187056;23;20192;-88
2022/02/16 09:27:30;;;;;;;0.93;0.90;;;;;;;;;;6178488;23;20157;-88
2022/02/16 09:30:34;;;;;;;2.83;0.83;;;;;;;;;;6178392;23;20476;-88
2022/02/16 09:33:39;;;;;;;1.53;1.33;;;;;;;;;;6189785;23;20185;-88
2022/02/16 09:36:42;;;;;;;3.50;2.60;;;;;;;;;;6178457;23;20153;-89
2022/02/16 09:39:47;;;;;;;2.70;2.50;;;;;;;;;;6175376;23;20180;-88
2022/02/16 09:42:51;;;;;;;2.63;2.43;;;;;;;;;;6159117;23;20200;-88
2022/02/16 09:45:57;;;;;;;1.17;0.73;;;;;;;;;;6161281;23;20161;-87
2022/02/16 09:49:03;;;;;;;2.37;1.00;;;;;;;;;;6153737;23;20499;-87
2022/02/16 09:52:10;;;;;;;25.20;18.40;;;;;;;;;;6164732;23;20467;-88
2022/02/16 09:55:16;;;;;;;1.93;1.40;;;;;;;;;;6153690;23;20192;-88
2022/02/16 09:58:21;;;;;;;1.20;1.10;;;;;;;;;;6171622;23;20189;-87
2022/02/16 10:01:25;;;;;;;4.80;1.33;;;;;;;;;;6167005;23;20207;-87
2022/02/16 10:04:31;;;;;;;1.47;1.20;;;;;;;;;;6133977;23;20464;-87
2022/02/16 10:07:44;;;;;;;1.60;1.27;;;;;;;;;;6163961;23;20189;-87
2022/02/16 10:11:00;;;;;;;1.10;1.00;;;;;;;;;;6122503;23;20173;-88
2022/02/16 10:14:22;;;;;;;2.03;1.60;;;;;;;;;;6157602;23;20166;-87
2022/02/16 10:17:28;;;;;;;1.83;1.20;;;;;;;;;;6147648;23;20193;-89
2022/02/16 10:20:32;;;;;;;1.00;0.90;;;;;;;;;;6158170;23;20610;-88
2022/02/16 10:23:43;;;;;;;0.80;0.80;;;;;;;;;;6167306;23;20154;-88
2022/02/16 10:26:53;;;;;;;0.70;0.60;;;;;;;;;;6124268;23;20173;-88
2022/02/16 10:30:08;;;;;;;1.37;0.57;;;;;;;;;;6139625;23;20174;-89
2022/02/16 10:33:25;;;;;;;0.50;0.50;;;;;;;;;;6133813;23;20150;-87
2022/02/16 10:36:31;;;;;;;9.07;6.20;;;;;;;;;;6165848;23;20161;-88
2022/02/16 10:39:36;;;;;;;5.60;4.67;;;;;;;;;;6183407;23;20154;-87
2022/02/16 10:42:53;;;;;;;2.47;2.03;;;;;;;;;;6148603;23;20188;-87
2022/02/16 10:45:57;;;;;;;2.00;1.90;;;;;;;;;;6148646;23;20476;-87
2022/02/16 10:49:11;;;;;;;1.23;0.97;;;;;;;;;;6123262;23;20197;-87
2022/02/16 10:52:18;;;;;;;1.30;1.20;;;;;;;;;;6149071;23;20153;-87
2022/02/16 10:55:42;;;;;;;2.73;2.53;;;;;;;;;;6122109;23;20173;-87
2022/02/16 10:58:46;;;;;;;3.30;2.20;;;;;;;;;;6124398;23;20189;-87
2022/02/16 11:01:51;;;;;;;1.90;1.80;;;;;;;;;;6139195;23;20193;-86
2022/02/16 11:04:58;;;;;;;2.33;2.03;;;;;;;;;;6149211;23;20153;-86
2022/02/16 11:08:03;;;;;;;0.83;0.63;;;;;;;;;;6144167;23;20193;-86
2022/02/16 11:11:09;;;;;;;1.60;0.80;;;;;;;;;;6149012;23;20154;-86
2022/02/16 11:14:15;;;;;;;1.13;0.80;;;;;;;;;;6132483;23;20153;-86
2022/02/16 11:17:24;;;;;;;2.10;1.10;;;;;;;;;;6163653;23;20197;-86
2022/02/16 11:20:29;;;;;;;1.40;1.10;;;;;;;;;;6148667;23;20154;-88
2022/02/16 11:23:42;;;;;;;2.13;1.50;;;;;;;;;;6132073;23;20181;-87
2022/02/16 11:26:48;;;;;;;1.10;0.70;;;;;;;;;;6156206;23;20475;-86
2022/02/16 11:29:58;;;;;;;2.43;1.00;;;;;;;;;;6166614;23;20153;-85
2022/02/16 11:33:22;;;;;;;1.40;1.30;;;;;;;;;;6156207;23;20260;-85
2022/02/16 11:36:55;;;;;;;2.07;0.70;;;;;;;;;;6133683;23;20153;-85
2022/02/16 11:40:00;;;;;;;0.50;0.50;;;;;;;;;;6166330;23;20158;-85
2022/02/16 11:43:07;;;;;;;0.50;0.50;;;;;;;;;;6148627;23;20185;-85
2022/02/16 11:46:41;;;;;;;0.50;0.47;;;;;;;;;;6165072;23;20157;-85
2022/02/16 11:49:45;;;;;;;0.50;0.50;;;;;;;;;;6165712;23;20146;-85
2022/02/16 11:52:54;;;;;;;1.33;0.50;;;;;;;;;;6131881;23;20602;-86
2022/02/16 11:56:22;;;;;;;0.33;0.33;;;;;;;;;;6150538;23;20158;-87
2022/02/16 11:59:26;;;;;;;0.50;0.50;;;;;;;;;;6151067;23;20464;-85
2022/02/16 12:02:30;;;;;;;1.33;0.50;;;;;;;;;;6133677;23;20629;-86
2022/02/16 12:05:41;;;;;;;0.53;0.50;;;;;;;;;;6157617;23;20173;-86
2022/02/16 12:08:48;;;;;;;1.47;0.40;;;;;;;;;;6142841;23;20185;-86
2022/02/16 12:12:11;;;;;;;0.83;0.40;;;;;;;;;;6150824;23;20158;-86
2022/02/16 12:15:19;;;;;;;0.80;0.50;;;;;;;;;;6184949;23;20591;-88
2022/02/16 12:18:25;;;;;;;0.80;0.50;;;;;;;;;;6144034;23;20189;-88
2022/02/16 12:21:36;;;;;;;0.50;0.50;;;;;;;;;;6134388;23;20150;-88
2022/02/16 12:24:39;;;;;;;0.67;0.40;;;;;;;;;;6167593;23;20154;-88
2022/02/16 12:27:44;;;;;;;2.20;0.60;;;;;;;;;;6129941;23;20192;-88
2022/02/16 12:30:48;;;;;;;14.30;6.70;;;;;;;;;;6150933;23;20153;-87
2022/02/16 12:34:05;;;;;;;9.83;5.13;;;;;;;;;;6167549;23;20154;-86
2022/02/16 12:37:15;;;;;;;5.13;2.00;;;;;;;;;;6149083;23;20157;-87
2022/02/16 12:40:23;;;;;;;0.60;0.60;;;;;;;;;;6184718;23;20154;-87
2022/02/16 12:43:27;;;;;;;1.10;1.00;;;;;;;;;;6167183;23;20197;-87
2022/02/16 12:46:35;;;;;;;0.90;0.90;;;;;;;;;;6150487;23;20464;-86
2022/02/16 12:49:42;;;;;;;2.37;0.40;;;;;;;;;;6150710;23;20161;-86
2022/02/16 12:52:46;;;;;;;0.60;0.60;;;;;;;;;;6133977;23;20154;-86
2022/02/16 12:55:52;;;;;;;0.80;0.60;;;;;;;;;;6167362;23;20191;-86
2022/02/16 12:58:57;;;;;;;1.23;0.50;;;;;;;;;;6158106;23;20658;-86
2022/02/16 13:02:20;;;;;;;0.83;0.60;;;;;;;;;;6157168;23;20173;-86
2022/02/16 13:05:34;;;;;;;0.40;0.40;;;;;;;;;;6149438;23;20154;-86
2022/02/16 13:08:38;;;;;;;0.80;0.80;;;;;;;;;;6176706;23;20189;-86
2022/02/16 13:11:52;;;;;;;0.57;0.57;;;;;;;;;;6133877;23;20150;-86
2022/02/16 13:14:55;;;;;;;1.17;0.67;;;;;;;;;;6123664;23;20165;-86
2022/02/16 13:18:00;;;;;;;0.70;0.50;;;;;;;;;;6162955;23;20193;-87
2022/02/16 13:21:18;;;;;;;1.43;0.50;;;;;;;;;;6133483;23;20153;-87
2022/02/16 13:24:24;;;;;;;0.83;0.60;;;;;;;;;;6183588;23;20181;-87
2022/02/16 13:27:41;;;;;;;0.50;0.50;;;;;;;;;;6163902;23;20658;-87
2022/02/16 13:30:47;;;;;;;3.23;0.50;;;;;;;;;;6166704;23;20154;-87
2022/02/16 13:34:11;;;;;;;0.60;0.50;;;;;;;;;;6123288;23;20165;-87
2022/02/16 13:37:15;;;;;;;2.03;0.90;;;;;;;;;;6131234;23;20194;-87
2022/02/16 13:40:19;;;;;;;0.43;0.40;;;;;;;;;;6166021;23;20158;-87
2022/02/16 13:43:25;;;;;;;0.50;0.50;;;;;;;;;;6151089;23;20236;-87
2022/02/16 13:46:46;;;;;;;0.50;0.50;;;;;;;;;;6149921;23;20154;-87
2022/02/16 13:49:57;;;;;;;0.53;0.50;;;;;;;;;;6149144;23;20155;-88
2022/02/16 13:53:03;;;;;;;4.70;4.33;;;;;;;;;;6183353;23;20188;-88
2022/02/16 13:56:07;;;;;;;4.77;1.73;;;;;;;;;;6149504;23;20456;-88
2022/02/16 13:59:11;;;;;;;6.40;5.10;;;;;;;;;;6139106;23;20193;-89
2022/02/16 14:02:16;;;;;;;11.00;8.77;;;;;;;;;;6148775;23;20154;-88
2022/02/16 14:05:24;;;;;;;5.17;4.37;;;;;;;;;;6132849;23;20158;-87
2022/02/16 14:08:29;;;;;;;18.47;14.23;;;;;;;;;;6159163;23;20642;-87
2022/02/16 14:11:33;;;;;;;4.70;3.37;;;;;;;;;;6149074;23;20160;-87
2022/02/16 14:14:39;;;;;;;44.83;27.27;;;;;;;;;;6141105;23;20170;-86
2022/02/16 14:17:47;;;;;;;20.17;14.03;;;;;;;;;;6140168;23;20200;-87
2022/02/16 14:20:51;;;;;;;10.10;7.73;;;;;;;;;;6122933;23;20183;-87
2022/02/16 14:23:57;;;;;;;5.57;5.00;;;;;;;;;;6149296;23;20181;-88
2022/02/16 14:27:07;;;;;;;0.97;0.80;;;;;;;;;;6148400;23;20157;-89
2022/02/16 14:30:16;;;;;;;1.50;1.40;;;;;;;;;;6122395;23;20173;-88
2022/02/16 14:33:21;;;;;;;1.40;1.30;;;;;;;;;;6156042;23;20170;-87
2022/02/16 14:36:25;;;;;;;1.60;0.80;;;;;;;;;;6149484;23;20162;-86
2022/02/16 14:39:30;;;;;;;4.67;3.33;;;;;;;;;;6131972;23;20149;-87
2022/02/16 14:42:34;;;;;;;4.03;2.83;;;;;;;;;;6149445;23;20153;-87
2022/02/16 14:45:38;;;;;;;13.43;7.90;;;;;;;;;;6132413;23;20249;-87
2022/02/16 14:48:43;;;;;;;13.20;7.90;;;;;;;;;;6158154;23;20197;-88
2022/02/16 14:51:50;;;;;;;14.43;9.30;;;;;;;;;;6165752;23;20154;-88
2022/02/16 14:54:54;;;;;;;9.00;7.60;;;;;;;;;;6155804;23;20169;-88
2022/02/16 14:57:59;;;;;;;10.23;7.80;;;;;;;;;;6144875;23;20193;-87
2022/02/16 15:01:03;;;;;;;3.73;1.77;;;;;;;;;;6165999;23;20603;-88
2022/02/16 15:04:07;;;;;;;0.97;0.70;;;;;;;;;;6155567;23;20197;-87
2022/02/16 15:07:13;;;;;;;2.97;2.53;;;;;;;;;;6155243;23;20193;-87
2022/02/16 15:10:18;;;;;;;6.07;4.00;;;;;;;;;;6166692;23;20154;-87
2022/02/16 15:13:25;;;;;;;5.23;3.70;;;;;;;;;;6139963;23;20166;-87
2022/02/16 15:16:29;;;;;;;8.13;4.40;;;;;;;;;;6166819;23;20153;-88
2022/02/16 15:19:36;;;;;;;4.23;3.47;;;;;;;;;;6149601;23;20464;-85
2022/02/16 15:22:40;;;;;;;13.97;9.77;;;;;;;;;;6148439;23;20153;-89
2022/02/16 15:25:44;;;;;;;9.63;7.00;;;;;;;;;;6156218;23;20173;-87
2022/02/16 15:28:51;;;;;;;12.27;7.50;;;;;;;;;;6121394;23;20185;-89
2022/02/16 15:31:56;;;;;;;13.23;8.50;;;;;;;;;;6138973;23;20173;-87
2022/02/16 15:35:00;;;;;;;9.03;6.97;;;;;;;;;;6149364;23;20154;-89
2022/02/16 15:38:06;;;;;;;6.77;5.33;;;;;;;;;;6143570;23;20193;-84
2022/02/16 15:41:10;;;;;;;14.40;9.27;;;;;;;;;;6165300;23;20157;-89
2022/02/16 15:44:14;;;;;;;4.73;3.90;;;;;;;;;;6123003;23;20216;-89
2022/02/16 15:47:18;;;;;;;2.60;2.40;;;;;;;;;;6146479;23;20193;-90
2022/02/16 15:50:23;;;;;;;6.10;2.47;;;;;;;;;;6137881;23;20213;-89
2022/02/16 15:53:28;;;;;;;2.00;1.80;;;;;;;;;;6148691;23;20154;-88
2022/02/16 15:56:32;;;;;;;3.17;2.90;;;;;;;;;;6115253;23;20153;-88
2022/02/16 15:59:36;;;;;;;5.23;4.33;;;;;;;;;;6121686;23;20169;-89
2022/02/16 16:02:40;;;;;;;2.53;2.10;;;;;;;;;;6138417;23;20488;-87
2022/02/16 16:05:45;;;;;;;6.07;4.43;;;;;;;;;;6115398;23;20158;-88
2022/02/16 16:08:49;;;;;;;8.43;6.00;;;;;;;;;;6107455;23;20189;-87
2022/02/16 16:11:54;;;;;;;3.43;1.80;;;;;;;;;;6135682;23;20162;-88
2022/02/16 16:14:58;;;;;;;3.13;2.73;;;;;;;;;;6115476;23;20154;-88
2022/02/16 16:18:02;;;;;;;1.83;1.67;;;;;;;;;;6110130;23;20193;-88
2022/02/16 16:21:07;;;;;;;2.73;2.07;;;;;;;;;;6151647;23;20172;-88
2022/02/16 16:24:10;;;;;;;5.50;2.77;;;;;;;;;;6150892;23;20193;-88
2022/02/16 16:27:16;;;;;;;1.07;0.87;;;;;;;;;;6168369;23;20189;-89
2022/02/16 16:30:20;;;;;;;1.57;1.00;;;;;;;;;;6177802;23;20153;-88
2022/02/16 16:33:24;;;;;;;1.03;0.90;;;;;;;;;;6178032;23;20153;-88
2022/02/16 16:36:29;;;;;;;1.13;0.73;;;;;;;;;;6177957;23;20471;-89
2022/02/16 16:39:32;;;;;;;2.80;2.50;;;;;;;;;;6160905;23;20459;-88
2022/02/16 16:42:37;;;;;;;4.10;2.60;;;;;;;;;;6145918;23;20149;-88
2022/02/16 16:45:41;;;;;;;5.60;3.27;;;;;;;;;;6180370;23;20157;-88
2022/02/16 16:48:45;;;;;;;4.77;3.63;;;;;;;;;;6149465;23;20201;-87
2022/02/16 16:51:49;;;;;;;6.50;4.33;;;;;;;;;;6107114;23;20173;-88
2022/02/16 16:54:53;;;;;;;4.17;3.33;;;;;;;;;;6133941;23;20452;-89
2022/02/16 16:57:58;;;;;;;8.03;4.80;;;;;;;;;;6128361;23;20189;-88
2022/02/16 17:01:02;;;;;;;1.50;1.40;;;;;;;;;;6116992;23;20261;-88
2022/02/16 17:04:05;;;;;;;1.73;1.00;;;;;;;;;;6116420;23;20186;-88
2022/02/16 17:07:10;;;;;;;1.80;1.40;;;;;;;;;;6132630;23;20154;-88
2022/02/16 17:10:14;;;;;;;2.17;1.40;;;;;;;;;;6116810;23;20460;-88
2022/02/16 17:13:20;;;;;;;2.77;1.83;;;;;;;;;;6133723;23;20157;-88
2022/02/16 17:16:24;;;;;;;2.87;2.53;;;;;;;;;;6133439;23;20598;-87
2022/02/16 17:19:29;;;;;;;1.33;1.00;;;;;;;;;;6133509;23;20150;-88
2022/02/16 17:22:33;;;;;;;2.43;1.43;;;;;;;;;;6118125;23;20162;-88
2022/02/16 17:25:39;;;;;;;1.43;1.10;;;;;;;;;;6133416;23;20157;-88
2022/02/16 17:28:43;;;;;;;1.20;1.10;;;;;;;;;;6143264;23;20193;-88
2022/02/16 17:31:47;;;;;;;1.57;1.27;;;;;;;;;;6133162;23;20599;-88
2022/02/16 17:34:51;;;;;;;2.00;1.30;;;;;;;;;;6134088;23;20150;-87
2022/02/16 17:37:55;;;;;;;1.60;1.03;;;;;;;;;;6129288;23;20193;-87
2022/02/16 17:40:59;;;;;;;1.40;1.30;;;;;;;;;;6166361;23;20157;-89
2022/02/16 17:47:27;;;;;;;2.30;0.90;;;;;;;;;;6152729;23;20196;-89
2022/02/16 17:50:31;;;;;;;1.00;0.83;;;;;;;;;;6144889;23;20156;-88
2022/02/16 17:53:35;;;;;;;2.60;1.40;;;;;;;;;;6162339;23;20157;-87
2022/02/16 17:56:39;;;;;;;1.70;1.00;;;;;;;;;;6163048;23;20153;-87
2022/02/16 17:59:44;;;;;;;1.00;0.77;;;;;;;;;;6163075;23;20161;-87
2022/02/16 18:02:49;;;;;;;1.37;0.93;;;;;;;;;;6146566;23;20149;-88
2022/02/16 18:05:53;;;;;;;0.77;0.70;;;;;;;;;;6170620;23;20165;-88
2022/02/16 18:08:59;;;;;;;2.37;1.40;;;;;;;;;;6152131;23;20192;-87
2022/02/16 18:12:04;;;;;;;1.70;1.20;;;;;;;;;;6179295;23;20157;-88
2022/02/16 18:15:09;;;;;;;1.77;1.00;;;;;;;;;;6178728;23;20594;-87
2022/02/16 18:18:13;;;;;;;1.97;1.80;;;;;;;;;;6156108;23;20192;-87
2022/02/16 18:21:17;;;;;;;1.70;1.60;;;;;;;;;;6145274;23;20157;-88
2022/02/16 18:24:21;;;;;;;1.60;1.40;;;;;;;;;;6145254;23;20181;-87
2022/02/16 18:27:26;;;;;;;2.00;1.30;;;;;;;;;;6177246;23;20192;-87
2022/02/16 18:30:31;;;;;;;1.60;1.50;;;;;;;;;;6161701;23;20157;-87
2022/02/16 18:33:40;;;;;;;1.87;1.40;;;;;;;;;;6169057;23;20168;-87
2022/02/16 18:36:44;;;;;;;1.97;0.97;;;;;;;;;;6178714;23;20160;-87
2022/02/16 18:39:48;;;;;;;1.10;1.00;;;;;;;;;;6179300;23;20468;-88
2022/02/16 18:42:52;;;;;;;1.37;0.93;;;;;;;;;;6144948;23;20157;-87